Terminal Aerodrome Forecast
Issued by NWS

Home | Current Version | Previous Version | Graphics & Text | Print | Product List | Glossary On
Versions: 1 2 3 4 5 6 7 8 9 10 11 12 13 14 15 16 17
000
FTUS42 KMHX 290500
TAFISO
TAF
KISO 290520Z 2906/3006 19005KT P6SM SCT250
     FM290900 21005KT 5SM BR SCT007 WS015/22030KT
     FM291300 22008KT P6SM SCT035 BKN250
     FM291700 22010G16KT P6SM SCT040 BKN250
     FM292100 24007KT P6SM SCT035 BKN250
      AMD LTD TO CLD VIS AND WIND=

USA.gov is the U.S. government's official web portal to all federal, state and local government web resources and services.